Time;durP1;ratioP1;P1;durP2;ratioP2;P2;SDS_P1;SDS_P2;PMS_P1;PMS_P2;Temp;Humidity;BMP_temperature;BMP_pressure;BME280_temperature;BME280_humidity;BME280_pressure;Samples;Min_cycle;Max_cycle;Signal;HPM_P1;HPM_P2
2021/10/18 00:01:36;;;;;;;35.13;22.22;;;;;;;2.84;100.00;99496.86;1577127;89;21003;-60
2021/10/18 00:04:05;;;;;;;36.42;21.42;;;;;;;2.85;100.00;99496.44;1569306;90;20980;-61
2021/10/18 00:06:33;;;;;;;36.03;21.15;;;;;;;2.84;100.00;99490.77;1593570;89;21514;-64
2021/10/18 00:09:03;;;;;;;31.80;20.55;;;;;;;2.83;100.00;99494.17;1593585;88;21518;-60
2021/10/18 00:11:32;;;;;;;33.65;20.55;;;;;;;2.82;100.00;99491.98;1596780;88;20964;-60
2021/10/18 00:14:01;;;;;;;34.50;20.25;;;;;;;2.81;100.00;99481.52;1592550;88;21011;-60
2021/10/18 00:16:29;;;;;;;35.35;21.70;;;;;;;2.81;100.00;99485.43;1607969;88;21442;-60
2021/10/18 00:18:57;;;;;;;34.88;21.73;;;;;;;2.80;100.00;99482.36;1596245;88;20985;-60
2021/10/18 00:21:26;;;;;;;33.00;20.68;;;;;;;2.80;100.00;99481.05;1592835;88;21476;-60
2021/10/18 00:23:54;;;;;;;41.23;22.05;;;;;;;2.79;100.00;99484.50;1593618;89;21113;-60
2021/10/18 00:26:23;;;;;;;37.13;20.57;;;;;;;2.79;100.00;99479.29;1593471;89;20921;-60
2021/10/18 00:28:52;;;;;;;32.33;20.45;;;;;;;2.78;100.00;99475.80;1592888;89;21457;-60
2021/10/18 00:31:20;;;;;;;35.78;21.02;;;;;;;2.78;100.00;99474.92;1592811;89;20917;-60
2021/10/18 00:33:49;;;;;;;36.60;21.70;;;;;;;2.78;100.00;99477.11;1592494;88;21495;-60
2021/10/18 00:36:17;;;;;;;33.08;20.05;;;;;;;2.79;100.00;99479.29;1593120;88;21055;-60
2021/10/18 00:38:45;;;;;;;32.42;21.00;;;;;;;2.78;100.00;99474.50;1593005;88;21463;-61
2021/10/18 00:41:14;;;;;;;34.60;20.90;;;;;;;2.78;100.00;99465.38;1593133;89;20976;-61
2021/10/18 00:43:46;;;;;;;34.27;19.95;;;;;;;2.80;100.00;99461.52;1594639;89;20921;-60
2021/10/18 00:46:14;;;;;;;31.90;19.70;;;;;;;2.81;100.00;99469.80;1595229;89;20978;-60
2021/10/18 00:48:42;;;;;;;30.77;19.42;;;;;;;2.80;100.00;99462.82;1594555;89;21444;-60
2021/10/18 00:51:11;;;;;;;34.27;20.72;;;;;;;2.76;100.00;99464.45;1594834;88;20955;-60
2021/10/18 00:53:39;;;;;;;30.90;20.17;;;;;;;2.73;100.00;99468.27;1594582;88;21000;-60
2021/10/18 00:56:07;;;;;;;32.17;19.42;;;;;;;2.71;100.00;99463.85;1594777;88;21099;-60
2021/10/18 00:58:35;;;;;;;32.45;20.05;;;;;;;2.72;100.00;99472.12;1594705;89;21610;-60
2021/10/18 01:01:03;;;;;;;32.95;20.23;;;;;;;2.72;100.00;99461.71;1594604;88;21109;-60
2021/10/18 01:03:31;;;;;;;34.53;20.50;;;;;;;2.73;100.00;99466.08;1594682;88;20917;-60
2021/10/18 01:06:00;;;;;;;33.83;21.45;;;;;;;2.76;100.00;99471.39;1594744;88;21005;-60
2021/10/18 01:08:27;;;;;;;31.55;20.40;;;;;;;2.76;100.00;99468.78;1594244;90;21440;-60
2021/10/18 01:10:55;;;;;;;33.55;20.10;;;;;;;2.75;100.00;99465.29;1595226;88;21475;-61
2021/10/18 01:13:24;;;;;;;35.15;21.25;;;;;;;2.74;100.00;99471.34;1594904;89;21451;-60
2021/10/18 01:15:52;;;;;;;31.62;18.98;;;;;;;2.74;100.00;99477.85;1594562;88;20945;-60
2021/10/18 01:18:21;;;;;;;33.60;18.25;;;;;;;2.73;100.00;99480.41;1594512;88;21475;-61
2021/10/18 01:20:49;;;;;;;28.57;19.05;;;;;;;2.68;100.00;99478.09;1595530;89;21030;-60
2021/10/18 01:23:17;;;;;;;32.10;19.17;;;;;;;2.65;100.00;99477.58;1594665;88;21028;-61
2021/10/18 01:25:47;;;;;;;29.92;19.45;;;;;;;2.66;100.00;99473.25;1594858;88;21437;-61
2021/10/18 01:28:16;;;;;;;31.85;18.75;;;;;;;2.66;100.00;99479.77;1594325;88;21448;-60
2021/10/18 01:30:43;;;;;;;32.08;19.25;;;;;;;2.68;100.00;99478.09;1594747;89;20964;-61
2021/10/18 01:33:12;;;;;;;31.97;18.90;;;;;;;2.70;100.00;99486.83;1594576;88;21452;-60
2021/10/18 01:35:40;;;;;;;32.40;19.25;;;;;;;2.72;100.00;99489.06;1583944;89;21087;-61
2021/10/18 01:38:09;;;;;;;32.17;19.05;;;;;;;2.74;100.00;99489.99;1594641;90;21155;-61
2021/10/18 01:40:37;;;;;;;34.92;19.77;;;;;;;2.77;100.00;99484.88;1594660;89;20973;-61
2021/10/18 01:43:06;;;;;;;33.53;20.57;;;;;;;2.80;100.00;99487.16;1594350;88;21452;-61
2021/10/18 01:45:34;;;;;;;31.02;19.45;;;;;;;2.84;100.00;99490.77;1594202;89;21471;-60
2021/10/18 01:48:03;;;;;;;31.60;19.30;;;;;;;2.87;100.00;99493.88;1594050;89;21483;-62
2021/10/18 01:50:31;;;;;;;31.65;18.95;;;;;;;2.80;100.00;99487.57;1573864;90;21507;-60
2021/10/18 01:53:00;;;;;;;29.70;18.35;;;;;;;2.75;100.00;99487.44;1596571;88;20965;-61
2021/10/18 01:55:28;;;;;;;28.57;20.08;;;;;;;2.72;100.00;99488.64;1599355;89;20962;-61
2021/10/18 01:57:57;;;;;;;32.88;21.85;;;;;;;2.73;100.00;99485.63;1594054;88;21472;-60
2021/10/18 02:00:25;;;;;;;33.67;22.02;;;;;;;2.73;100.00;99484.31;1594058;88;21004;-60
2021/10/18 02:02:54;;;;;;;32.67;20.35;;;;;;;2.75;100.00;99490.45;1594267;90;21096;-60
2021/10/18 02:05:22;;;;;;;29.48;19.35;;;;;;;2.76;100.00;99490.50;1594023;89;21009;-61
2021/10/18 02:07:51;;;;;;;31.75;20.10;;;;;;;2.76;100.00;99493.53;1594407;88;21029;-60
2021/10/18 02:10:20;;;;;;;27.82;18.92;;;;;;;2.74;100.00;99494.78;1594164;90;21483;-60
2021/10/18 02:12:51;;;;;;;29.55;19.10;;;;;;;2.73;100.00;99497.34;1594462;90;21491;-60
2021/10/18 02:15:19;;;;;;;30.85;20.02;;;;;;;2.70;100.00;99495.95;1594202;88;21124;-60
2021/10/18 02:17:47;;;;;;;32.30;19.10;;;;;;;2.70;100.00;99499.44;1594397;89;21500;-60
2021/10/18 02:20:15;;;;;;;27.85;19.05;;;;;;;2.69;100.00;99501.58;1594151;89;21028;-60
2021/10/18 02:22:43;;;;;;;35.88;20.75;;;;;;;2.66;100.00;99496.69;1594461;88;20968;-60
2021/10/18 02:25:12;;;;;;;30.35;19.75;;;;;;;2.64;100.00;99502.27;1594234;89;21540;-60
2021/10/18 02:27:42;;;;;;;32.42;20.88;;;;;;;2.62;100.00;99504.83;1594160;88;21475;-60
2021/10/18 02:30:11;;;;;;;30.95;19.70;;;;;;;2.61;100.00;99500.88;1594198;90;21476;-61
2021/10/18 02:32:40;;;;;;;32.58;19.45;;;;;;;2.58;100.00;99499.06;1594380;89;20968;-60
2021/10/18 02:35:09;;;;;;;29.72;19.98;;;;;;;2.55;100.00;99503.29;1594479;88;20981;-60
2021/10/18 02:37:38;;;;;;;35.33;20.35;;;;;;;2.51;100.00;99498.41;1594328;88;21029;-61
2021/10/18 02:40:08;;;;;;;30.92;19.27;;;;;;;2.49;100.00;99493.15;1594097;89;21105;-60
2021/10/18 02:42:37;;;;;;;33.05;19.57;;;;;;;2.46;100.00;99492.17;1595615;88;21044;-60
2021/10/18 02:45:07;;;;;;;29.98;18.30;;;;;;;2.44;100.00;99503.84;1602262;88;20984;-60
2021/10/18 02:47:36;;;;;;;28.57;18.17;;;;;;;2.42;100.00;99503.33;1603572;88;21531;-60
2021/10/18 02:50:06;;;;;;;26.02;17.55;;;;;;;2.38;100.00;99501.05;1603419;88;21479;-60
2021/10/18 02:52:34;;;;;;;30.00;18.45;;;;;;;2.36;100.00;99500.49;1603561;88;21111;-60
2021/10/18 02:55:03;;;;;;;29.25;18.07;;;;;;;2.33;100.00;99497.37;1603537;88;21021;-60
2021/10/18 02:57:31;;;;;;;29.70;18.25;;;;;;;2.29;100.00;99496.81;1603483;88;20976;-60
2021/10/18 03:00:02;;;;;;;35.68;19.67;;;;;;;2.27;100.00;99502.80;1603309;89;21049;-60
2021/10/18 03:02:31;;;;;;;34.50;18.50;;;;;;;2.21;100.00;99504.38;1603274;88;21456;-60
2021/10/18 03:04:59;;;;;;;31.82;18.27;;;;;;;2.19;100.00;99499.95;1602856;89;21100;-60
2021/10/18 03:07:29;;;;;;;30.92;19.67;;;;;;;2.17;100.00;99504.23;1593915;89;20925;-60
2021/10/18 03:09:57;;;;;;;27.98;18.25;;;;;;;2.13;100.00;99498.45;1591311;88;20920;-61
2021/10/18 03:12:25;;;;;;;32.15;19.23;;;;;;;2.12;100.00;99499.29;1597561;89;20976;-59
2021/10/18 03:14:54;;;;;;;30.10;18.50;;;;;;;2.11;100.00;99502.31;1602595;88;21478;-60
2021/10/18 03:17:22;;;;;;;28.32;18.17;;;;;;;2.09;100.00;99499.19;1603188;88;21098;-60
2021/10/18 03:19:50;;;;;;;28.77;18.10;;;;;;;2.07;100.00;99503.04;1597311;87;21039;-60
2021/10/18 03:22:18;;;;;;;28.27;17.07;;;;;;;2.08;100.00;99505.23;1604483;87;21014;-60
2021/10/18 03:24:46;;;;;;;31.30;18.25;;;;;;;2.08;100.00;99499.61;1603409;89;21509;-59
2021/10/18 03:27:14;;;;;;;32.50;18.75;;;;;;;2.07;100.00;99506.94;1603801;88;21505;-60
2021/10/18 03:29:43;;;;;;;31.60;18.05;;;;;;;2.07;100.00;99493.05;1603687;88;21447;-60
2021/10/18 03:32:11;;;;;;;31.05;18.65;;;;;;;2.07;100.00;99499.14;1603084;87;20911;-60
2021/10/18 03:34:40;;;;;;;31.68;18.07;;;;;;;2.06;100.00;99495.19;1603766;88;21479;-59
2021/10/18 03:37:08;;;;;;;31.95;17.95;;;;;;;2.04;100.00;99492.95;1603250;87;21511;-59
2021/10/18 03:39:36;;;;;;;31.55;18.73;;;;;;;2.02;100.00;99489.00;1603608;88;21025;-60
2021/10/18 03:42:04;;;;;;;29.63;17.73;;;;;;;1.99;100.00;99491.50;1603850;89;21094;-60
2021/10/18 03:44:32;;;;;;;31.80;19.52;;;;;;;1.96;100.00;99488.80;1594862;88;20976;-60
2021/10/18 03:47:00;;;;;;;31.05;17.92;;;;;;;1.93;100.00;99486.09;1593314;88;20932;-60
2021/10/18 03:49:29;;;;;;;30.35;18.00;;;;;;;1.91;100.00;99481.67;1593006;88;20928;-60
2021/10/18 03:51:57;;;;;;;27.80;17.92;;;;;;;1.89;100.00;99479.91;1593095;89;21009;-59
2021/10/18 03:54:26;;;;;;;29.98;17.73;;;;;;;1.86;100.00;99474.98;1593431;88;21511;-59
2021/10/18 03:56:54;;;;;;;25.62;16.75;;;;;;;1.85;100.00;99475.39;1592930;88;21571;-59
2021/10/18 03:59:22;;;;;;;30.02;18.15;;;;;;;1.85;100.00;99472.80;1588032;88;21115;-58
2021/10/18 04:01:50;;;;;;;29.95;17.07;;;;;;;1.84;100.00;99468.84;1578566;89;21483;-58
2021/10/18 04:04:18;;;;;;;26.48;17.27;;;;;;;1.82;100.00;99472.69;1594797;89;21029;-59
2021/10/18 04:06:48;;;;;;;27.52;17.50;;;;;;;1.83;100.00;99473.58;1594837;88;21135;-58
2021/10/18 04:09:17;;;;;;;26.73;17.35;;;;;;;1.81;100.00;99472.64;1593090;88;21012;-68
2021/10/18 04:11:46;;;;;;;24.65;17.85;;;;;;;1.79;100.00;99471.70;1586996;88;20934;-58
2021/10/18 04:14:15;;;;;;;31.40;19.02;;;;;;;1.76;100.00;99471.60;1594287;88;21465;-60
2021/10/18 04:16:43;;;;;;;32.70;18.35;;;;;;;1.73;100.00;99470.20;1593189;88;21830;-59
2021/10/18 04:19:11;;;;;;;30.17;18.45;;;;;;;1.72;100.00;99474.94;1591911;88;21902;-58
2021/10/18 04:21:39;;;;;;;28.70;17.75;;;;;;;1.72;100.00;99477.53;1585013;89;20921;-59
2021/10/18 04:24:06;;;;;;;31.60;17.62;;;;;;;1.74;100.00;99473.27;1592412;89;21044;-58
2021/10/18 04:26:34;;;;;;;31.48;18.42;;;;;;;1.74;100.00;99482.37;1591778;88;21008;-59
2021/10/18 04:29:04;;;;;;;29.15;18.05;;;;;;;1.72;100.00;99471.03;1592464;89;20980;-59
2021/10/18 04:31:34;;;;;;;27.87;17.75;;;;;;;1.70;100.00;99481.80;1555436;90;21734;-58
2021/10/18 04:34:02;;;;;;;30.95;17.62;;;;;;;1.68;100.00;99483.47;1586827;89;20962;-58
2021/10/18 04:36:29;;;;;;;29.15;16.57;;;;;;;1.66;100.00;99485.13;1585139;89;21024;-58
2021/10/18 04:38:57;;;;;;;27.67;17.05;;;;;;;1.62;100.00;99487.16;1583812;89;21043;-58
2021/10/18 04:41:25;;;;;;;27.93;16.75;;;;;;;1.60;100.00;99486.22;1593812;89;20964;-58
2021/10/18 04:43:53;;;;;;;27.13;16.40;;;;;;;1.55;100.00;99488.66;1592552;88;21161;-58
2021/10/18 04:46:20;;;;;;;25.90;16.62;;;;;;;1.50;100.00;99489.80;1593254;89;21429;-58
2021/10/18 04:48:48;;;;;;;27.58;16.60;;;;;;;1.54;100.00;99492.09;1592996;88;20862;-58
2021/10/18 04:51:15;;;;;;;23.10;16.35;;;;;;;1.57;100.00;99499.58;1593434;88;21037;-58
2021/10/18 04:53:43;;;;;;;25.30;16.25;;;;;;;1.61;100.00;99506.19;1593079;89;20989;-58
2021/10/18 04:56:11;;;;;;;30.65;18.27;;;;;;;1.64;100.00;99500.68;1593387;88;21094;-58
2021/10/18 04:58:40;;;;;;;31.30;17.25;;;;;;;1.68;100.00;99507.75;1592954;89;20972;-59
2021/10/18 05:01:08;;;;;;;42.62;17.60;;;;;;;1.70;100.00;99502.19;1593067;89;21024;-57
2021/10/18 05:03:37;;;;;;;31.23;18.05;;;;;;;1.76;100.00;99503.70;1598580;88;20939;-60
2021/10/18 05:06:04;;;;;;;28.70;17.98;;;;;;;1.81;100.00;99511.24;1599525;88;20983;-58
2021/10/18 05:08:33;;;;;;;30.48;17.20;;;;;;;1.86;100.00;99515.30;1590859;88;21953;-59
2021/10/18 05:11:01;;;;;;;29.45;16.55;;;;;;;1.93;100.00;99509.50;1575301;89;21528;-58
2021/10/18 05:13:29;;;;;;;22.15;15.93;;;;;;;1.99;100.00;99509.70;1568044;89;20965;-59
2021/10/18 05:15:57;;;;;;;21.25;15.13;;;;;;;2.07;100.00;99516.05;1593119;88;20979;-58
2021/10/18 05:18:26;;;;;;;25.70;14.93;;;;;;;2.14;100.00;99516.72;1596845;88;21466;-58
2021/10/18 05:20:53;;;;;;;23.60;15.75;;;;;;;2.25;100.00;99520.09;1600031;88;21111;-58
2021/10/18 05:23:22;;;;;;;23.25;14.60;;;;;;;2.33;100.00;99527.31;1599751;88;21502;-58
2021/10/18 05:25:50;;;;;;;27.22;15.35;;;;;;;2.41;100.00;99533.69;1599226;88;20992;-58
2021/10/18 05:28:18;;;;;;;21.68;14.55;;;;;;;2.46;100.00;99529.51;1598175;89;20978;-58
2021/10/18 05:30:48;;;;;;;27.55;16.85;;;;;;;2.52;100.00;99535.33;1597835;89;20933;-58
2021/10/18 05:33:16;;;;;;;24.05;16.40;;;;;;;2.58;100.00;99545.94;1597994;89;21437;-58
2021/10/18 05:35:44;;;;;;;51.23;18.27;;;;;;;2.62;100.00;99539.10;1597503;89;20925;-58
2021/10/18 05:38:11;;;;;;;25.25;15.55;;;;;;;2.67;100.00;99551.85;1598325;89;20920;-58
2021/10/18 05:40:39;;;;;;;25.55;17.23;;;;;;;2.74;100.00;99553.39;1598260;89;21512;-59
2021/10/18 05:43:08;;;;;;;24.72;16.85;;;;;;;2.80;100.00;99550.09;1598248;89;20980;-58
2021/10/18 05:45:36;;;;;;;25.30;17.10;;;;;;;2.88;100.00;99559.48;1566626;89;21466;-57
2021/10/18 05:48:04;;;;;;;26.15;15.58;;;;;;;2.90;100.00;99556.50;1563705;90;21608;-57
2021/10/18 05:50:40;;;;;;;26.55;15.75;;;;;;;2.90;100.00;99548.27;1564898;90;21472;-57
2021/10/18 05:53:07;;;;;;;23.70;16.27;;;;;;;2.95;100.00;99567.53;1564810;90;21040;-58
2021/10/18 05:55:35;;;;;;;23.38;16.35;;;;;;;2.97;100.00;99559.34;1568990;90;20896;-58
2021/10/18 05:58:05;;;;;;;25.40;18.20;;;;;;;3.03;100.00;99562.55;1572279;89;21934;-57
2021/10/18 06:00:39;;;;;;;28.70;18.30;;;;;;;3.07;100.00;99575.72;1527038;92;21107;-57
2021/10/18 06:03:07;;;;;;;27.48;17.02;;;;;;;3.10;100.00;99570.60;1565834;90;20911;-57
2021/10/18 06:05:44;;;;;;;24.82;17.37;;;;;;;3.16;100.00;99568.18;1564504;90;20959;-58
2021/10/18 06:08:15;;;;;;;29.00;17.32;;;;;;;3.23;100.00;99573.16;1564906;90;20923;-59
2021/10/18 06:10:43;;;;;;;23.57;15.90;;;;;;;3.30;100.00;99571.61;1564298;90;21454;-58
2021/10/18 06:13:11;;;;;;;23.92;15.72;;;;;;;3.39;100.00;99584.53;1564389;90;20899;-59
2021/10/18 06:15:39;;;;;;;22.02;16.85;;;;;;;3.47;100.00;99584.33;1564822;90;20990;-57
2021/10/18 06:18:08;;;;;;;25.32;16.95;;;;;;;3.54;100.00;99581.48;1564605;90;21002;-57
2021/10/18 06:20:36;;;;;;;29.37;16.70;;;;;;;3.61;100.00;99586.03;1564809;90;21517;-58
2021/10/18 06:23:04;;;;;;;19.55;15.38;;;;;;;3.69;100.00;99583.63;1564568;90;21074;-58
2021/10/18 06:25:32;;;;;;;20.32;14.28;;;;;;;3.77;100.00;99583.42;1564315;90;21124;-58
2021/10/18 06:27:59;;;;;;;21.85;13.70;;;;;;;3.87;100.00;99589.81;1569534;89;20993;-62
2021/10/18 06:30:28;;;;;;;19.02;12.60;;;;;;;3.96;100.00;99589.64;1528609;92;21529;-58
2021/10/18 06:32:55;;;;;;;19.02;13.83;;;;;;;4.09;100.00;99596.07;1562716;90;20943;-59
2021/10/18 06:35:23;;;;;;;22.60;14.07;;;;;;;4.21;100.00;99588.98;1563592;90;21537;-58
2021/10/18 06:37:51;;;;;;;29.55;14.43;;;;;;;4.31;100.00;99597.13;1565058;90;20899;-58
2021/10/18 06:40:18;;;;;;;20.75;13.53;;;;;;;4.39;100.00;99586.88;1565369;90;20899;-66
2021/10/18 06:42:46;;;;;;;24.63;14.28;;;;;;;4.47;100.00;99592.29;1582132;88;20985;-58
2021/10/18 06:45:14;;;;;;;22.27;15.55;;;;;;;4.56;100.00;99596.02;1602224;88;20992;-58
2021/10/18 06:47:42;;;;;;;20.90;13.85;;;;;;;4.63;100.00;99597.05;1593545;89;21044;-58
2021/10/18 06:50:10;;;;;;;21.33;13.60;;;;;;;4.71;100.00;99594.20;1593973;89;20931;-58
2021/10/18 06:52:41;;;;;;;21.93;11.68;;;;;;;4.79;100.00;99600.52;1594379;88;21508;-59
2021/10/18 06:55:09;;;;;;;17.73;12.05;;;;;;;4.86;100.00;99593.70;1594355;89;20968;-59
2021/10/18 06:57:38;;;;;;;23.18;13.08;;;;;;;4.94;100.00;99590.84;1594339;88;20977;-58
2021/10/18 07:00:07;;;;;;;22.35;14.60;;;;;;;5.00;100.00;99597.10;1594698;89;21174;-59
2021/10/18 07:02:34;;;;;;;23.15;13.93;;;;;;;5.03;100.00;99603.70;1594391;90;21046;-58
2021/10/18 07:05:01;;;;;;;23.75;14.85;;;;;;;5.09;100.00;99598.16;1594041;88;21481;-59
2021/10/18 07:07:30;;;;;;;23.90;15.28;;;;;;;5.15;100.00;99595.69;1594231;88;20932;-59
2021/10/18 07:10:00;;;;;;;22.32;16.05;;;;;;;5.20;100.00;99600.59;1594324;88;20925;-59
2021/10/18 07:12:30;;;;;;;24.90;15.98;;;;;;;5.25;100.00;99606.41;1594187;90;21112;-59
2021/10/18 07:14:58;;;;;;;22.07;14.70;;;;;;;5.30;100.00;99603.48;1594024;89;20881;-59
2021/10/18 07:17:26;;;;;;;24.20;15.75;;;;;;;5.36;100.00;99605.34;1594624;89;20965;-59
2021/10/18 07:19:54;;;;;;;19.37;14.13;;;;;;;5.43;100.00;99612.90;1594559;89;21508;-59
2021/10/18 07:22:26;;;;;;;20.05;13.83;;;;;;;5.53;100.00;99609.20;1594487;88;21032;-58
2021/10/18 07:24:54;;;;;;;24.47;14.83;;;;;;;5.63;100.00;99607.23;1592507;88;21189;-57
2021/10/18 07:27:24;;;;;;;23.47;15.18;;;;;;;5.73;100.00;99605.72;1592209;88;20980;-58
2021/10/18 07:29:53;;;;;;;22.17;14.70;;;;;;;5.81;100.00;99601.94;1592290;88;20960;-58
2021/10/18 07:32:20;;;;;;;26.52;15.18;;;;;;;5.88;100.00;99602.09;1592279;88;20993;-59
2021/10/18 07:34:47;;;;;;;22.22;15.78;;;;;;;5.94;100.00;99596.13;1592255;89;21028;-61
2021/10/18 07:37:18;;;;;;;30.80;15.40;;;;;;;5.98;100.00;99599.27;1600560;87;21122;-58
2021/10/18 07:39:44;;;;;;;22.98;15.32;;;;;;;6.02;100.00;99593.66;1601162;89;20966;-58
2021/10/18 07:42:14;;;;;;;36.00;17.50;;;;;;;6.06;100.00;99595.05;1600838;87;20930;-58
2021/10/18 07:44:41;;;;;;;22.20;16.17;;;;;;;6.11;100.00;99599.06;1600098;87;21038;-58
2021/10/18 07:47:09;;;;;;;28.40;16.80;;;;;;;6.18;100.00;99599.24;1589276;89;20986;-59
2021/10/18 07:49:38;;;;;;;30.30;17.05;;;;;;;6.24;100.00;99596.73;1589510;89;21113;-59
2021/10/18 07:52:07;;;;;;;24.67;15.03;;;;;;;6.31;100.00;99596.41;1594674;88;20933;-58
2021/10/18 07:54:35;;;;;;;27.80;15.50;;;;;;;6.38;100.00;99594.78;1599711;88;21507;-58
2021/10/18 07:57:03;;;;;;;31.73;18.00;;;;;;;6.48;100.00;99591.04;1599618;88;21513;-59
2021/10/18 07:59:31;;;;;;;25.72;16.37;;;;;;;6.58;100.00;99589.45;1599841;88;20966;-59
2021/10/18 08:02:01;;;;;;;31.95;18.45;;;;;;;6.66;100.00;99591.80;1599475;88;21121;-61
2021/10/18 08:04:30;;;;;;;37.20;17.07;;;;;;;6.75;100.00;99589.33;1599188;88;20996;-62
2021/10/18 08:06:57;;;;;;;29.65;16.75;;;;;;;6.84;100.00;99585.55;1585184;88;21825;-62
2021/10/18 08:09:26;;;;;;;37.50;17.57;;;;;;;6.91;100.00;99587.83;1595525;90;20936;-61
2021/10/18 08:11:54;;;;;;;31.37;17.25;;;;;;;7.01;100.00;99594.98;1594870;89;21580;-59
2021/10/18 08:14:22;;;;;;;31.50;18.87;;;;;;;7.12;100.00;99592.12;1595714;89;21928;-61
2021/10/18 08:16:49;;;;;;;32.75;17.85;;;;;;;7.22;100.00;99602.31;1595381;89;20977;-59
2021/10/18 08:19:18;;;;;;;27.62;16.50;;;;;;;7.31;100.00;99598.50;1594940;89;20985;-68
2021/10/18 08:21:45;;;;;;;36.68;20.92;;;;;;;7.39;100.00;99597.30;1594218;89;20945;-62
2021/10/18 08:24:13;;;;;;;25.00;16.00;;;;;;;7.47;100.00;99600.91;1591947;89;21012;-58
2021/10/18 08:26:40;;;;;;;25.12;14.35;;;;;;;7.54;100.00;99598.38;1591770;89;21727;-57
2021/10/18 08:29:08;;;;;;;21.42;13.22;;;;;;;7.62;100.00;99593.27;1592579;88;20941;-58
2021/10/18 08:31:36;;;;;;;17.10;11.93;;;;;;;7.71;100.00;99592.49;1592487;90;20928;-58
2021/10/18 08:34:04;;;;;;;24.12;15.65;;;;;;;7.79;100.00;99595.66;1592859;89;20973;-57
2021/10/18 08:36:36;;;;;;;23.98;14.98;;;;;;;7.90;100.00;99591.84;1592633;88;20957;-58
2021/10/18 08:41:56;;;;;;;34.45;19.75;;;;;;;8.07;100.00;99589.00;1592373;88;20897;-57
2021/10/18 08:44:21;;;;;;;38.15;20.05;;;;;;;8.17;100.00;99580.78;1604245;88;20928;-58
2021/10/18 08:46:52;;;;;;;32.98;18.02;;;;;;;8.26;100.00;99583.51;1622031;88;20937;-58
2021/10/18 08:49:21;;;;;;;24.02;15.38;;;;;;;8.34;100.00;99576.61;1621824;88;21484;-59
2021/10/18 08:51:49;;;;;;;24.05;13.30;;;;;;;8.41;100.00;99576.23;1614218;88;21113;-58
2021/10/18 08:54:17;;;;;;;26.97;12.95;;;;;;;8.48;100.00;99569.73;1603509;89;20955;-58
2021/10/18 08:56:44;;;;;;;19.23;11.03;;;;;;;8.55;100.00;99565.44;1600725;88;20978;-58
2021/10/18 08:59:12;;;;;;;16.05;10.93;;;;;;;8.65;100.00;99558.06;1597215;89;21094;-58
2021/10/18 09:01:49;;;;;;;14.63;9.60;;;;;;;8.80;100.00;99565.20;1596667;89;21460;-58
2021/10/18 09:04:28;;;;;;;15.70;9.73;;;;;;;8.96;100.00;99557.86;1594205;89;21094;-58
2021/10/18 09:07:05;;;;;;;15.60;8.08;;;;;;;9.18;100.00;99556.27;1585213;89;20933;-58
2021/10/18 09:09:48;;;;;;;10.88;7.67;;;;;;;9.41;100.00;99555.08;1588357;88;21016;-58
2021/10/18 09:12:27;;;;;;;15.08;8.83;;;;;;;9.62;100.00;99546.42;1612513;88;20972;-58
2021/10/18 09:15:01;;;;;;;14.35;8.90;;;;;;;9.87;100.00;99547.38;1612631;88;20917;-59
2021/10/18 09:17:34;;;;;;;10.23;7.50;;;;;;;10.14;100.00;99546.16;1609834;88;21499;-58
2021/10/18 09:20:25;;;;;;;13.08;6.53;;;;;;;10.41;100.00;99540.11;1612495;88;20953;-58
2021/10/18 09:23:14;;;;;;;15.28;7.33;;;;;;;10.69;100.00;99550.22;1604385;88;20967;-58
2021/10/18 09:25:41;;;;;;;22.55;10.30;;;;;;;11.00;100.00;99548.46;1600538;88;20927;-58
2021/10/18 09:28:18;;;;;;;12.47;7.60;;;;;;;11.32;100.00;99541.34;1601568;88;20939;-58
2021/10/18 09:30:47;;;;;;;10.78;7.25;;;;;;;11.63;100.00;99537.30;1588715;88;21101;-58
2021/10/18 09:33:27;;;;;;;15.55;7.53;;;;;;;11.93;100.00;99529.28;1598205;88;21066;-58
2021/10/18 09:35:54;;;;;;;10.60;6.08;;;;;;;12.23;100.00;99531.30;1601032;88;20983;-58
2021/10/18 09:38:22;;;;;;;8.78;5.67;;;;;;;12.50;100.00;99521.86;1601622;88;20995;-58
2021/10/18 09:40:54;;;;;;;10.03;6.03;;;;;;;12.74;100.00;99528.72;1601786;88;20988;-58
2021/10/18 09:43:32;;;;;;;11.05;5.90;;;;;;;12.98;100.00;99530.73;1601127;88;21112;-58
2021/10/18 09:46:24;;;;;;;8.70;5.35;;;;;;;13.18;99.14;99523.05;1596826;88;20915;-59
2021/10/18 10:54:34;;;;;;;22.22;10.50;;;;;;;12.83;60.28;99472.19;1567689;90;21122;-58
2021/10/18 10:57:11;;;;;;;27.67;17.37;;;;;;;12.77;60.53;99467.84;1567164;91;21001;-59
2021/10/18 10:59:33;;;;;;;22.00;12.37;;;;;;;12.73;61.04;99474.02;1570476;89;20939;-59
2021/10/18 11:02:09;;;;;;;17.25;11.63;;;;;;;12.70;61.11;99471.84;1558569;89;21458;-59
2021/10/18 11:04:40;;;;;;;16.73;10.25;;;;;;;12.66;61.55;99467.48;1592172;89;20973;-58
2021/10/18 11:07:19;;;;;;;14.43;9.13;;;;;;;12.60;61.50;99464.44;1592119;89;21115;-59
2021/10/18 11:09:51;;;;;;;13.75;8.58;;;;;;;12.56;61.77;99460.07;1581905;89;20931;-59
2021/10/18 11:12:32;;;;;;;13.32;7.30;;;;;;;12.51;61.63;99457.47;1537856;92;20947;-59
2021/10/18 11:15:12;;;;;;;16.23;8.35;;;;;;;12.50;62.10;99454.39;1559840;90;21433;-58
2021/10/18 11:17:43;;;;;;;10.20;6.70;;;;;;;12.52;62.26;99459.67;1591816;89;20984;-59
2021/10/18 11:20:16;;;;;;;11.45;7.03;;;;;;;12.52;62.05;99455.25;1591661;89;21730;-59
2021/10/18 11:22:49;;;;;;;18.02;11.15;;;;;;;12.52;61.72;99451.73;1589406;89;20919;-59
2021/10/18 11:25:26;;;;;;;19.37;9.03;;;;;;;12.52;61.63;99445.11;1592197;89;20900;-59
2021/10/18 11:28:01;;;;;;;16.95;11.35;;;;;;;12.51;61.61;99442.91;1592084;88;20987;-60
2021/10/18 11:30:31;;;;;;;14.75;9.45;;;;;;;12.50;61.81;99443.80;1591941;89;20963;-59
2021/10/18 11:33:05;;;;;;;10.60;7.03;;;;;;;12.51;61.98;99440.71;1591982;89;21186;-58
2021/10/18 11:35:34;;;;;;;15.25;8.78;;;;;;;12.51;62.37;99440.27;1591579;89;20948;-59
2021/10/18 11:38:05;;;;;;;18.20;10.13;;;;;;;12.57;63.06;99437.56;1591871;89;20967;-58
2021/10/18 11:40:46;;;;;;;15.00;8.73;;;;;;;12.68;63.80;99436.58;1592207;89;21482;-60
2021/10/18 11:43:19;;;;;;;12.63;7.35;;;;;;;12.78;63.94;99437.83;1592296;89;21467;-58
2021/10/18 11:45:52;;;;;;;11.97;7.67;;;;;;;12.93;63.87;99435.01;1592201;89;21045;-59
2021/10/18 11:48:29;;;;;;;11.63;7.15;;;;;;;13.08;63.57;99426.45;1590591;89;21436;-58
2021/10/18 11:50:59;;;;;;;14.93;7.58;;;;;;;13.17;63.21;99423.73;1590820;89;20963;-59
2021/10/18 11:53:35;;;;;;;14.30;8.93;;;;;;;13.25;62.12;99428.52;1590497;88;21018;-58
2021/10/18 11:56:02;;;;;;;11.60;8.13;;;;;;;13.28;61.25;99418.33;1590245;89;20931;-58
2021/10/18 11:58:38;;;;;;;11.80;7.55;;;;;;;13.27;60.65;99417.91;1590552;89;21104;-58
2021/10/18 12:01:11;;;;;;;10.82;6.62;;;;;;;13.23;60.17;99414.38;1597328;88;20969;-58
2021/10/18 12:03:39;;;;;;;14.90;8.38;;;;;;;13.20;59.79;99414.42;1591984;89;20990;-59
2021/10/18 12:06:09;;;;;;;15.80;9.10;;;;;;;13.19;59.85;99413.99;1594395;89;21448;-59
2021/10/18 12:08:38;;;;;;;23.07;10.95;;;;;;;13.17;59.68;99421.95;1588678;88;20937;-58
2021/10/18 12:11:12;;;;;;;17.05;10.60;;;;;;;13.16;59.76;99417.52;1597625;87;21093;-59
2021/10/18 12:13:43;;;;;;;17.20;9.28;;;;;;;13.14;59.57;99420.64;1601387;87;20954;-59
2021/10/18 12:16:19;;;;;;;13.32;8.38;;;;;;;13.10;59.47;99419.38;1602284;87;21501;-59
2021/10/18 12:18:52;;;;;;;18.15;8.65;;;;;;;13.03;59.21;99413.27;1601901;87;20914;-59
2021/10/18 12:21:32;;;;;;;16.00;11.68;;;;;;;12.95;58.81;99420.88;1601538;87;20945;-61
2021/10/18 12:24:09;;;;;;;19.42;10.35;;;;;;;12.86;58.61;99412.59;1600739;89;21546;-69
2021/10/18 12:26:46;;;;;;;19.32;9.43;;;;;;;12.75;58.81;99417.09;1600889;89;20936;-59
2021/10/18 12:29:23;;;;;;;17.48;9.78;;;;;;;12.69;59.25;99416.71;1600624;89;20968;-59
2021/10/18 12:31:56;;;;;;;22.30;10.70;;;;;;;12.63;59.59;99418.55;1600615;89;20992;-60
2021/10/18 12:34:27;;;;;;;14.47;8.95;;;;;;;12.57;59.75;99420.81;1600464;89;21563;-57
2021/10/18 12:37:12;;;;;;;21.93;9.75;;;;;;;12.51;59.91;99420.42;1596470;89;21043;-58
2021/10/18 12:39:57;;;;;;;16.50;8.70;;;;;;;12.45;59.87;99420.48;1596809;90;20924;-58